ORER

Erbil International Airport

Arbil, Iraq
TAF ORER 190500Z 1906/2006 12007KT 8000 SCT030 SCT100 PROB40 TEMPO 1915/2002 4000 -SHRA BKN030 BKN100
Issued Valid From Valid To
Oct-19 @ 05:00 UTC
(4 hours ago)
Oct-19 @ 06:00 UTC
(3 hours ago)
Oct-20 @ 06:00 UTC
(in 21 hours)
Oct-19 @ 06:00 to Oct-20 @ 06:00
TAF ORER 190500Z 1906/2006 12007KT 8000 SCT030 SCT100
Wind Visibility Clouds
120° at 7 knots 7,998 meters
  • Scattered at 3,000' AGL
  • Scattered at 10,000' AGL
Temporary  (Probability 40%) Oct-19 @ 15:00 to Oct-20 @ 02:00
PROB40 TEMPO 1915/2002 4000 -SHRA BKN030 BKN100
Visibility Clouds Conditions
4,007 meters
  • Broken at 3,000' AGL
  • Broken at 10,000' AGL
  • Light Rain
TAF ORER 190500Z 1906/2006 12007KT 8000 SCT030 SCT100 PROB40 TEMPO 1915/2002 4000 -SHRA BKN030 BKN100
Issued Oct-19 @ 05:00 UTC
(4 hours ago)
Valid From Oct-19 @ 06:00 UTC
(3 hours ago)
Valid To Oct-20 @ 06:00 UTC
(in 21 hours)
Oct-19 @ 06:00 - Oct-20 @ 06:00
Wind Visibility
120° at 7 knots 7,998 meters
Clouds
  • Scattered at 3,000' AGL
  • Scattered at 10,000' AGL
Probability 40% Temporary Oct-19 @ 15:00 - Oct-20 @ 02:00
Clouds
  • Broken at 3,000' AGL
  • Broken at 10,000' AGL
Conditions
  • Light Rain